createdAt,value
2022-08-26T00:01:54.047Z,100537.56
2022-08-26T00:04:23.849Z,100537.56
2022-08-26T00:06:51.678Z,100527.31
2022-08-26T00:09:18.751Z,100532.44
2022-08-26T00:11:46.403Z,100535.31
2022-08-26T00:14:15.109Z,100533.88
2022-08-26T00:16:47.782Z,100534.06
2022-08-26T00:19:18.301Z,100537.94
2022-08-26T00:21:48.875Z,100536.31
2022-08-26T00:24:18.516Z,100540.00
2022-08-26T00:26:45.887Z,100537.53
2022-08-26T00:29:13.531Z,100548.59
2022-08-26T00:31:42.388Z,100546.31
2022-08-26T00:34:11.319Z,100546.72
2022-08-26T00:36:40.644Z,100546.31
2022-08-26T00:39:09.121Z,100550.19
2022-08-26T00:41:39.906Z,100543.00
2022-08-26T00:44:07.613Z,100549.97
2022-08-26T00:46:40.036Z,100546.69
2022-08-26T00:49:20.081Z,100554.06
2022-08-26T00:51:55.710Z,100550.97
2022-08-26T00:54:27.325Z,100547.50
2022-08-26T00:57:08.725Z,100552.19
2022-08-26T00:59:50.772Z,100551.56
2022-08-26T01:02:20.868Z,100545.41
2022-08-26T01:04:54.246Z,100545.63
2022-08-26T01:07:30.167Z,100549.06
2022-08-26T01:10:00.805Z,100546.22
2022-08-26T01:12:32.181Z,100542.09
2022-08-26T01:14:59.743Z,100544.97
2022-08-26T01:17:26.761Z,100546.19
2022-08-26T01:20:46.128Z,100537.59
2022-08-26T01:23:14.689Z,100539.81
2022-08-26T01:25:48.678Z,100540.00
2022-08-26T01:28:29.409Z,100539.41
2022-08-26T01:31:21.131Z,100542.44
2022-08-26T01:33:51.105Z,100544.50
2022-08-26T01:36:18.763Z,100539.56
2022-08-26T01:38:47.881Z,100542.22
2022-08-26T01:41:19.674Z,100543.25
2022-08-26T01:43:51.461Z,100540.94
2022-08-26T01:46:19.851Z,100544.63
2022-08-26T01:48:48.291Z,100544.84
2022-08-26T01:51:20.317Z,100551.56
2022-08-26T01:53:47.641Z,100546.19
2022-08-26T01:56:15.620Z,100552.53
2022-08-26T01:58:47.317Z,100557.03
2022-08-26T02:01:14.738Z,100551.06
2022-08-26T02:04:10.248Z,100541.84
2022-08-26T02:06:38.995Z,100549.63
2022-08-26T02:09:07.123Z,100542.66
2022-08-26T02:11:34.772Z,100548.00
2022-08-26T02:14:33.074Z,100551.50
2022-08-26T02:17:03.655Z,100554.34
2022-08-26T02:19:37.289Z,100554.53
2022-08-26T02:22:07.315Z,100553.69
2022-08-26T02:24:51.761Z,100555.34
2022-08-26T02:27:22.929Z,100551.69
2022-08-26T02:29:55.721Z,100545.91
2022-08-26T02:32:23.939Z,100556.81
2022-08-26T02:34:51.297Z,100550.44
2022-08-26T02:37:19.001Z,100552.09
2022-08-26T02:39:50.039Z,100554.56
2022-08-26T02:42:16.971Z,100554.19
2022-08-26T02:44:43.883Z,100552.94
2022-08-26T02:47:14.583Z,100550.94
2022-08-26T02:49:47.414Z,100562.00
2022-08-26T02:52:15.073Z,100556.66
2022-08-26T02:54:42.108Z,100561.59
2022-08-26T02:57:10.695Z,100560.41
2022-08-26T02:59:39.427Z,100561.84
2022-08-26T03:02:07.038Z,100563.31
2022-08-26T03:04:34.073Z,100557.59
2022-08-26T03:07:01.230Z,100556.16
2022-08-26T03:09:28.295Z,100561.94
2022-08-26T03:11:55.630Z,100563.16
2022-08-26T03:14:24.130Z,100560.72
2022-08-26T03:16:54.521Z,100564.22
2022-08-26T03:19:24.057Z,100566.69
2022-08-26T03:21:53.021Z,100570.78
2022-08-26T03:24:25.925Z,100567.91
2022-08-26T03:26:53.177Z,100571.22
2022-08-26T03:29:40.252Z,100564.66
2022-08-26T03:32:07.629Z,100565.31
2022-08-26T03:34:35.162Z,100561.41
2022-08-26T03:37:02.389Z,100569.84
2022-08-26T03:39:31.679Z,100564.09
2022-08-26T03:42:00.100Z,100572.31
2022-08-26T03:44:27.171Z,100570.88
2022-08-26T03:46:54.675Z,100565.78
2022-08-26T03:49:22.676Z,100565.16
2022-08-26T03:51:50.110Z,100556.78
2022-08-26T03:54:18.021Z,100552.91
2022-08-26T03:56:46.528Z,100559.72
2022-08-26T03:59:13.794Z,100567.53
2022-08-26T04:01:40.819Z,100566.72
2022-08-26T04:04:07.951Z,100560.78
2022-08-26T04:06:40.434Z,100565.50
2022-08-26T04:09:10.790Z,100563.66
2022-08-26T04:11:39.676Z,100572.25
2022-08-26T04:14:11.485Z,100572.88
2022-08-26T04:16:38.995Z,100578.41
2022-08-26T04:19:06.747Z,100574.91
2022-08-26T04:21:34.664Z,100580.66
2022-08-26T04:24:03.527Z,100580.47
2022-08-26T04:26:39.447Z,100580.66
2022-08-26T04:29:17.747Z,100581.06
2022-08-26T04:31:45.645Z,100582.06
2022-08-26T04:34:14.155Z,100584.06
2022-08-26T04:36:43.336Z,100579.94
2022-08-26T04:39:18.659Z,100589.72
2022-08-26T04:41:48.735Z,100575.72
2022-08-26T04:44:18.747Z,100583.84
2022-08-26T04:46:45.771Z,100595.56
2022-08-26T04:49:13.795Z,100579.34
2022-08-26T04:51:40.874Z,100582.91
2022-08-26T04:54:08.800Z,100585.81
2022-08-26T04:56:40.064Z,100585.28
2022-08-26T04:59:17.133Z,100583.16
2022-08-26T05:01:52.609Z,100576.31
2022-08-26T05:04:20.987Z,100581.34
2022-08-26T05:06:49.111Z,100582.50
2022-08-26T05:09:18.645Z,100579.94
2022-08-26T05:11:48.523Z,100587.69
2022-08-26T05:14:21.055Z,100588.84
2022-08-26T05:16:49.542Z,100588.00
2022-08-26T05:19:17.222Z,100593.13
2022-08-26T05:21:48.543Z,100593.00
2022-08-26T05:24:17.198Z,100584.63
2022-08-26T05:26:45.485Z,100594.88
2022-08-26T05:29:13.244Z,100590.75
2022-08-26T05:31:40.400Z,100592.16
2022-08-26T05:34:08.499Z,100594.06
2022-08-26T05:36:37.014Z,100594.94
2022-08-26T05:39:06.395Z,100592.91
2022-08-26T05:41:38.528Z,100595.84
2022-08-26T05:44:08.728Z,100592.03
2022-08-26T05:46:37.314Z,100598.50
2022-08-26T05:49:05.918Z,100600.34
2022-08-26T05:51:33.292Z,100588.28
2022-08-26T05:54:02.588Z,100582.22
2022-08-26T05:56:30.935Z,100588.81
2022-08-26T05:58:59.689Z,100584.97
2022-08-26T06:01:29.123Z,100579.44
2022-08-26T06:03:59.700Z,100583.19
2022-08-26T06:06:35.025Z,100583.63
2022-08-26T06:09:05.745Z,100590.00
2022-08-26T06:11:33.469Z,100592.44
2022-08-26T06:14:04.292Z,100586.97
2022-08-26T06:16:35.019Z,100591.50
2022-08-26T06:19:03.880Z,100592.09
2022-08-26T06:21:40.487Z,100588.59
2022-08-26T06:24:29.605Z,100588.50
2022-08-26T06:27:03.101Z,100586.38
2022-08-26T06:29:34.852Z,100590.81
2022-08-26T06:32:04.733Z,100582.50
2022-08-26T06:34:31.968Z,100583.84
2022-08-26T06:37:02.740Z,100582.34
2022-08-26T06:39:31.798Z,100582.63
2022-08-26T06:42:00.179Z,100591.63
2022-08-26T06:44:28.051Z,100581.31
2022-08-26T06:46:55.331Z,100583.25
2022-08-26T06:49:26.758Z,100582.03
2022-08-26T06:52:00.166Z,100585.19
2022-08-26T06:54:30.474Z,100589.31
2022-08-26T06:56:57.696Z,100583.13
2022-08-26T06:59:25.059Z,100590.44
2022-08-26T07:01:52.424Z,100580.09
2022-08-26T07:04:22.443Z,100574.78
2022-08-26T07:06:52.789Z,100579.91
2022-08-26T07:09:22.811Z,100584.84
2022-08-26T07:11:51.489Z,100581.53
2022-08-26T07:14:21.117Z,100579.38
2022-08-26T07:16:49.589Z,100578.50
2022-08-26T07:19:30.033Z,100579.66
2022-08-26T07:22:04.668Z,100583.06
2022-08-26T07:24:35.102Z,100579.91
2022-08-26T07:27:05.636Z,100572.59
2022-08-26T07:29:33.664Z,100571.50
2022-08-26T07:32:00.868Z,100584.28
2022-08-26T07:34:28.216Z,100578.22
2022-08-26T07:36:57.143Z,100575.09
2022-08-26T07:39:28.005Z,100577.66
2022-08-26T07:41:55.569Z,100574.59
2022-08-26T07:44:23.294Z,100570.53
2022-08-26T07:46:53.144Z,100568.38
2022-08-26T07:49:25.286Z,100566.41
2022-08-26T07:51:53.414Z,100571.09
2022-08-26T07:54:20.784Z,100564.94
2022-08-26T07:56:54.833Z,100561.84
2022-08-26T07:59:23.654Z,100564.72
2022-08-26T08:01:51.644Z,100567.50
2022-08-26T08:04:26.050Z,100559.88
2022-08-26T08:06:54.189Z,100566.91
2022-08-26T08:09:22.376Z,100554.03
2022-08-26T08:11:50.211Z,100549.41
2022-08-26T08:14:20.470Z,100547.31
2022-08-26T08:16:51.131Z,100555.88
2022-08-26T08:19:22.109Z,100550.50
2022-08-26T08:21:49.148Z,100554.66
2022-08-26T08:24:16.300Z,100551.91
2022-08-26T08:26:43.535Z,100550.72
2022-08-26T08:29:10.569Z,100565.16
2022-08-26T08:31:56.432Z,100550.53
2022-08-26T08:34:26.914Z,100545.72
2022-08-26T08:36:54.319Z,100553.38
2022-08-26T08:39:22.390Z,100540.16
2022-08-26T08:42:25.868Z,100550.38
2022-08-26T08:44:55.702Z,100550.09
2022-08-26T08:47:34.508Z,100543.81
2022-08-26T08:50:19.837Z,100544.06
2022-08-26T08:52:55.733Z,100535.47
2022-08-26T08:55:27.346Z,100537.53
2022-08-26T08:58:08.359Z,100543.50
2022-08-26T09:01:12.398Z,100536.31
2022-08-26T09:03:45.009Z,100544.47
2022-08-26T09:06:18.779Z,100535.53
2022-08-26T09:08:50.018Z,100532.41
2022-08-26T09:11:19.870Z,100534.75
2022-08-26T09:13:52.585Z,100527.47
2022-08-26T09:16:27.958Z,100530.88
2022-08-26T09:19:36.078Z,100530.38
2022-08-26T09:22:07.106Z,100528.50
2022-08-26T09:24:42.067Z,100525.50
2022-08-26T09:27:36.306Z,100526.09
2022-08-26T09:30:06.264Z,100531.34
2022-08-26T09:32:35.238Z,100520.81
2022-08-26T09:35:07.675Z,100522.06
2022-08-26T09:40:23.437Z,100520.06
2022-08-26T09:43:10.928Z,100519.13
2022-08-26T09:45:40.158Z,100517.66
2022-08-26T09:48:09.289Z,100516.09
2022-08-26T09:50:50.069Z,100505.69
2022-08-26T09:53:28.539Z,100514.50
2022-08-26T09:56:28.368Z,100512.97
2022-08-26T09:58:57.067Z,100515.53
2022-08-26T10:01:24.260Z,100517.66
2022-08-26T10:03:51.969Z,100511.59
2022-08-26T10:06:21.118Z,100504.31
2022-08-26T10:08:52.583Z,100505.38
2022-08-26T10:11:33.547Z,100508.31
2022-08-26T10:14:12.969Z,100499.25
2022-08-26T10:16:49.054Z,100495.81
2022-08-26T10:19:25.495Z,100489.03
2022-08-26T10:22:17.503Z,100505.31
2022-08-26T10:24:55.287Z,100497.22
2022-08-26T10:27:51.042Z,100497.13
2022-08-26T10:30:23.247Z,100489.56
2022-08-26T10:33:02.437Z,100480.72
2022-08-26T10:35:31.909Z,100490.09
2022-08-26T10:38:04.841Z,100493.22
2022-08-26T10:40:59.174Z,100486.81
2022-08-26T10:43:38.104Z,100479.13
2022-08-26T10:46:16.413Z,100487.59
2022-08-26T10:49:03.331Z,100477.75
2022-08-26T10:51:42.259Z,100470.00
2022-08-26T10:54:24.818Z,100467.53
2022-08-26T10:57:02.144Z,100463.16
2022-08-26T10:59:47.513Z,100456.25
2022-08-26T11:02:38.698Z,100464.88
2022-08-26T11:05:17.089Z,100465.44
2022-08-26T11:07:54.873Z,100461.47
2022-08-26T11:10:22.655Z,100453.84
2022-08-26T11:13:05.174Z,100467.72
2022-08-26T11:15:32.051Z,100470.53
2022-08-26T11:18:03.572Z,100467.84
2022-08-26T11:20:33.296Z,100459.19
2022-08-26T11:23:27.272Z,100461.25
2022-08-26T11:26:20.401Z,100453.97
2022-08-26T11:29:01.765Z,100457.53
2022-08-26T11:31:30.704Z,100461.72
2022-08-26T11:34:13.311Z,100450.75
2022-08-26T11:36:46.235Z,100442.56
2022-08-26T11:39:19.552Z,100439.72
2022-08-26T11:41:52.712Z,100432.13
2022-08-26T11:44:23.720Z,100430.91
2022-08-26T11:47:01.263Z,100425.41
2022-08-26T11:49:29.664Z,100434.13
2022-08-26T11:52:20.751Z,100426.94
2022-08-26T11:55:11.208Z,100430.28
2022-08-26T11:57:46.548Z,100428.78
2022-08-26T12:00:33.454Z,100433.69
2022-08-26T12:03:05.799Z,100423.59
2022-08-26T12:05:39.508Z,100425.94
2022-08-26T12:08:11.305Z,100423.47
2022-08-26T12:10:39.114Z,100424.91
2022-08-26T12:13:07.677Z,100420.25
2022-08-26T12:15:35.835Z,100418.56
2022-08-26T12:18:28.949Z,100413.69
2022-08-26T12:20:59.580Z,100416.69
2022-08-26T12:23:27.038Z,100410.03
2022-08-26T12:26:12.592Z,100411.81
2022-08-26T12:28:45.338Z,100415.97
2022-08-26T12:31:20.976Z,100409.38
2022-08-26T12:33:50.651Z,100401.94
2022-08-26T12:36:32.104Z,100407.91
2022-08-26T12:39:12.572Z,100409.03
2022-08-26T12:42:17.705Z,100411.41
2022-08-26T12:45:00.203Z,100416.66
2022-08-26T12:47:43.994Z,100413.09
2022-08-26T12:50:23.922Z,100404.94
2022-08-26T12:52:57.461Z,100409.69
2022-08-26T12:55:32.173Z,100397.66
2022-08-26T12:58:17.516Z,100394.81
2022-08-26T13:00:45.898Z,100390.97
2022-08-26T13:03:46.385Z,100399.25
2022-08-26T13:06:18.206Z,100398.44
2022-08-26T13:08:54.065Z,100390.69
2022-08-26T13:11:28.089Z,100402.56
2022-08-26T13:13:59.385Z,100393.91
2022-08-26T13:16:27.708Z,100386.28
2022-08-26T13:18:59.461Z,100383.06
2022-08-26T13:21:37.786Z,100384.28
2022-08-26T13:24:13.953Z,100383.78
2022-08-26T13:26:43.270Z,100386.94
2022-08-26T13:29:11.552Z,100387.44
2022-08-26T13:31:41.332Z,100381.81
2022-08-26T13:34:12.486Z,100373.75
2022-08-26T13:36:42.687Z,100369.78
2022-08-26T13:39:09.690Z,100375.44
2022-08-26T13:41:36.884Z,100370.38
2022-08-26T13:44:04.452Z,100373.69
2022-08-26T13:46:31.775Z,100371.59
2022-08-26T13:48:59.280Z,100377.81
2022-08-26T13:51:27.386Z,100373.09
2022-08-26T13:53:54.877Z,100370.91
2022-08-26T13:56:23.053Z,100369.91
2022-08-26T13:58:50.265Z,100370.84
2022-08-26T14:01:17.699Z,100370.78
2022-08-26T14:03:44.953Z,100370.56
2022-08-26T14:06:14.075Z,100372.16
2022-08-26T14:08:42.191Z,100364.88
2022-08-26T14:11:09.967Z,100370.59
2022-08-26T14:13:37.416Z,100371.69
2022-08-26T14:16:07.778Z,100370.59
2022-08-26T14:18:41.854Z,100366.38
2022-08-26T14:21:12.763Z,100366.38
2022-08-26T14:23:40.359Z,100371.50
2022-08-26T14:26:11.687Z,100369.88
2022-08-26T14:29:00.458Z,100365.31
2022-08-26T14:31:29.792Z,100365.31
2022-08-26T14:34:03.904Z,100368.28
2022-08-26T14:36:32.619Z,100363.75
2022-08-26T14:39:11.754Z,100366.41
2022-08-26T14:41:45.885Z,100360.47
2022-08-26T14:44:24.677Z,100368.06
2022-08-26T14:46:53.280Z,100363.50
2022-08-26T14:49:22.533Z,100366.50
2022-08-26T14:51:50.317Z,100364.88
2022-08-26T14:54:18.619Z,100356.75
2022-08-26T14:56:54.782Z,100369.72
2022-08-26T14:59:25.651Z,100369.19
2022-08-26T15:01:53.394Z,100363.78
2022-08-26T15:04:21.657Z,100368.13
2022-08-26T15:06:49.178Z,100364.38
2022-08-26T15:09:17.061Z,100362.22
2022-08-26T15:11:44.699Z,100370.88
2022-08-26T15:14:19.824Z,100359.00
2022-08-26T15:16:49.651Z,100366.00
2022-08-26T15:19:17.751Z,100375.44
2022-08-26T15:21:47.366Z,100370.84
2022-08-26T15:24:17.017Z,100378.72
2022-08-26T15:26:45.144Z,100374.91
2022-08-26T15:29:12.337Z,100376.25
2022-08-26T15:31:39.607Z,100371.41
2022-08-26T15:34:11.133Z,100382.75
2022-08-26T15:36:43.739Z,100379.47
2022-08-26T15:39:11.458Z,100386.16
2022-08-26T15:41:38.674Z,100386.97
2022-08-26T15:44:07.120Z,100384.78
2022-08-26T15:46:34.910Z,100385.03
2022-08-26T15:49:04.035Z,100389.31
2022-08-26T15:51:45.456Z,100392.25
2022-08-26T15:54:14.028Z,100384.59
2022-08-26T15:56:41.122Z,100383.75
2022-08-26T15:59:11.853Z,100389.34
2022-08-26T16:01:39.524Z,100382.03
2022-08-26T16:04:07.489Z,100385.69
2022-08-26T16:06:37.933Z,100385.91
2022-08-26T16:09:07.065Z,100386.63
2022-08-26T16:11:36.065Z,100382.22
2022-08-26T16:14:04.713Z,100391.00
2022-08-26T16:16:32.395Z,100389.81
2022-08-26T16:19:01.356Z,100391.09
2022-08-26T16:21:31.567Z,100395.59
2022-08-26T16:23:59.205Z,100397.34
2022-08-26T16:26:32.695Z,100398.59
2022-08-26T16:29:01.848Z,100398.22
2022-08-26T16:31:28.937Z,100397.81
2022-08-26T16:33:56.102Z,100401.19
2022-08-26T16:36:23.079Z,100398.63
2022-08-26T16:38:54.843Z,100401.47
2022-08-26T16:41:23.788Z,100396.78
2022-08-26T16:43:51.056Z,100407.38
2022-08-26T16:46:18.832Z,100406.19
2022-08-26T16:48:46.174Z,100400.44
2022-08-26T16:51:16.250Z,100407.59
2022-08-26T16:53:45.807Z,100408.00
2022-08-26T16:56:17.443Z,100407.69
2022-08-26T16:58:44.775Z,100412.13
2022-08-26T17:01:11.815Z,100402.59
2022-08-26T17:03:38.952Z,100408.16
2022-08-26T17:06:06.270Z,100420.44
2022-08-26T17:08:33.538Z,100413.34
2022-08-26T17:11:01.272Z,100418.56
2022-08-26T17:13:35.297Z,100419.53
2022-08-26T17:16:06.452Z,100420.97
2022-08-26T17:18:33.783Z,100419.47
2022-08-26T17:21:07.673Z,100413.44
2022-08-26T17:23:36.091Z,100417.16
2022-08-26T17:26:04.005Z,100420.56
2022-08-26T17:28:31.042Z,100420.25
2022-08-26T17:30:58.956Z,100409.75
2022-08-26T17:33:26.904Z,100417.22
2022-08-26T17:35:54.420Z,100412.56
2022-08-26T17:38:22.193Z,100412.34
2022-08-26T17:40:50.073Z,100412.56
2022-08-26T17:43:17.468Z,100411.50
2022-08-26T17:45:44.488Z,100415.25
2022-08-26T17:48:11.634Z,100411.75
2022-08-26T17:50:41.406Z,100409.06
2022-08-26T17:53:12.566Z,100410.94
2022-08-26T17:55:46.999Z,100410.13
2022-08-26T17:58:14.927Z,100417.34
2022-08-26T18:00:50.569Z,100414.91
2022-08-26T18:03:19.282Z,100411.09
2022-08-26T18:05:51.967Z,100409.44
2022-08-26T18:08:19.543Z,100414.47
2022-08-26T18:10:46.804Z,100412.50
2022-08-26T18:13:16.849Z,100408.66
2022-08-26T18:15:46.241Z,100405.88
2022-08-26T18:18:14.668Z,100407.41
2022-08-26T18:20:43.539Z,100403.00
2022-08-26T18:23:11.995Z,100404.44
2022-08-26T18:25:43.347Z,100410.13
2022-08-26T18:28:10.645Z,100409.66
2022-08-26T18:30:38.270Z,100411.41
2022-08-26T18:33:05.374Z,100419.81
2022-08-26T18:35:32.479Z,100412.13
2022-08-26T18:38:01.436Z,100409.81
2022-08-26T18:40:40.091Z,100411.44
2022-08-26T18:43:07.317Z,100416.28
2022-08-26T18:45:34.706Z,100422.81
2022-08-26T18:48:03.061Z,100419.97
2022-08-26T18:50:30.189Z,100424.25
2022-08-26T18:52:57.300Z,100424.59
2022-08-26T18:55:24.909Z,100420.63
2022-08-26T18:57:51.881Z,100427.25
2022-08-26T19:00:19.054Z,100442.38
2022-08-26T19:02:47.031Z,100438.97
2022-08-26T19:05:19.963Z,100438.03
2022-08-26T19:07:47.902Z,100434.16
2022-08-26T19:10:15.049Z,100442.88
2022-08-26T19:12:42.630Z,100443.75
2022-08-26T19:15:11.450Z,100450.00
2022-08-26T19:17:38.440Z,100454.97
2022-08-26T19:20:06.060Z,100453.00
2022-08-26T19:22:33.330Z,100450.38
2022-08-26T19:25:01.398Z,100442.22
2022-08-26T19:27:30.052Z,100446.59
2022-08-26T19:29:57.766Z,100447.28
2022-08-26T19:32:25.376Z,100446.53
2022-08-26T19:34:52.932Z,100446.75
2022-08-26T19:37:21.099Z,100454.41
2022-08-26T19:39:48.507Z,100449.72
2022-08-26T19:42:16.735Z,100459.00
2022-08-26T19:45:02.682Z,100467.22
2022-08-26T19:47:31.726Z,100467.91
2022-08-26T19:49:58.805Z,100472.06
2022-08-26T19:52:30.060Z,100465.50
2022-08-26T19:54:58.139Z,100470.47
2022-08-26T19:57:25.183Z,100470.31
2022-08-26T19:59:52.163Z,100470.13
2022-08-26T20:02:19.700Z,100470.56
2022-08-26T20:04:47.274Z,100469.38
2022-08-26T20:07:18.545Z,100479.66
2022-08-26T20:09:46.961Z,100482.81
2022-08-26T20:12:15.521Z,100478.91
2022-08-26T20:14:43.458Z,100486.56
2022-08-26T20:17:10.707Z,100493.94
2022-08-26T20:19:56.448Z,100484.75
2022-08-26T20:22:24.610Z,100485.63
2022-08-26T20:24:52.767Z,100486.28
2022-08-26T20:27:22.346Z,100486.09
2022-08-26T20:29:49.429Z,100483.88
2022-08-26T20:32:18.563Z,100485.31
2022-08-26T20:34:45.646Z,100486.59
2022-08-26T20:37:12.699Z,100487.00
2022-08-26T20:39:39.820Z,100485.78
2022-08-26T20:42:19.797Z,100487.66
2022-08-26T20:44:54.273Z,100494.84
2022-08-26T20:47:23.298Z,100485.81
2022-08-26T20:49:52.357Z,100489.34
2022-08-26T20:52:20.107Z,100496.75
2022-08-26T20:54:47.179Z,100487.72
2022-08-26T20:57:14.813Z,100496.53
2022-08-26T20:59:43.190Z,100484.69
2022-08-26T21:02:10.338Z,100502.31
2022-08-26T21:04:37.434Z,100496.00
2022-08-26T21:07:04.570Z,100500.09
2022-08-26T21:09:33.083Z,100505.06
2022-08-26T21:12:00.124Z,100508.16
2022-08-26T21:14:27.242Z,100499.53
2022-08-26T21:16:54.748Z,100499.13
2022-08-26T21:19:22.049Z,100495.84
2022-08-26T21:21:50.050Z,100503.25
2022-08-26T21:24:17.577Z,100487.47
2022-08-26T21:26:45.486Z,100486.44
2022-08-26T21:29:13.858Z,100503.50
2022-08-26T21:31:46.190Z,100503.28
2022-08-26T21:34:16.330Z,100495.72
2022-08-26T21:36:43.791Z,100504.97
2022-08-26T21:39:12.225Z,100500.88
2022-08-26T21:41:41.514Z,100496.75
2022-08-26T21:44:09.987Z,100500.69
2022-08-26T21:46:37.518Z,100501.69
2022-08-26T21:49:07.876Z,100498.44
2022-08-26T21:51:38.750Z,100500.47
2022-08-26T21:54:10.706Z,100498.81
2022-08-26T21:56:42.375Z,100499.22
2022-08-26T21:59:10.116Z,100506.63
2022-08-26T22:01:37.963Z,100501.72
2022-08-26T22:04:07.551Z,100504.59
2022-08-26T22:06:39.355Z,100510.34
2022-08-26T22:09:06.469Z,100515.47
2022-08-26T22:11:33.569Z,100506.03
2022-08-26T22:14:00.655Z,100503.78
2022-08-26T22:16:28.824Z,100505.41
2022-08-26T22:18:55.955Z,100507.88
2022-08-26T22:21:26.162Z,100512.19
2022-08-26T22:23:57.973Z,100504.59
2022-08-26T22:26:28.872Z,100510.34
2022-08-26T22:28:59.219Z,100514.47
2022-08-26T22:31:37.043Z,100519.81
2022-08-26T22:34:08.670Z,100515.28
2022-08-26T22:36:42.691Z,100509.94
2022-08-26T22:39:15.757Z,100506.47
2022-08-26T22:41:44.070Z,100509.94
2022-08-26T22:44:12.147Z,100502.16
2022-08-26T22:46:40.315Z,100511.81
2022-08-26T22:49:09.725Z,100505.63
2022-08-26T22:51:37.100Z,100504.63
2022-08-26T22:54:04.882Z,100502.56
2022-08-26T22:56:31.986Z,100510.34
2022-08-26T22:58:58.998Z,100505.84
2022-08-26T23:01:26.292Z,100502.56
2022-08-26T23:03:53.721Z,100501.97
2022-08-26T23:06:20.843Z,100497.84
2022-08-26T23:08:48.133Z,100497.25
2022-08-26T23:11:15.376Z,100494.19
2022-08-26T23:13:42.681Z,100485.16
2022-08-26T23:16:11.809Z,100493.56
2022-08-26T23:18:40.866Z,100499.69
2022-08-26T23:21:08.763Z,100504.63
2022-08-26T23:23:36.814Z,100507.91
2022-08-26T23:26:06.331Z,100500.31
2022-08-26T23:28:34.678Z,100499.72
2022-08-26T23:31:01.972Z,100505.44
2022-08-26T23:33:49.355Z,100509.13
2022-08-26T23:36:18.427Z,100506.22
2022-08-26T23:38:52.652Z,100505.81
2022-08-26T23:41:23.466Z,100500.06
2022-08-26T23:43:51.775Z,100504.97
2022-08-26T23:46:19.743Z,100485.28
2022-08-26T23:48:47.503Z,100505.78
2022-08-26T23:51:33.697Z,100502.50
2022-08-26T23:54:00.775Z,100504.75
2022-08-26T23:56:29.287Z,100509.44
2022-08-26T23:58:56.778Z,100504.31
